createdAt,value
2019-03-30T00:01:07.685Z,97.10
2019-03-30T00:03:33.667Z,97.50
2019-03-30T00:05:59.668Z,97.80
2019-03-30T00:08:25.653Z,98.30
2019-03-30T00:10:51.655Z,98.40
2019-03-30T00:13:17.650Z,98.80
2019-03-30T00:15:43.674Z,99.10
2019-03-30T00:18:09.920Z,99.60
2019-03-30T00:20:35.937Z,99.90
2019-03-30T00:23:01.920Z,99.90
2019-03-30T00:25:27.923Z,99.90
2019-03-30T00:27:53.923Z,99.90
2019-03-30T00:30:19.939Z,99.90
2019-03-30T00:32:45.945Z,99.90
2019-03-30T00:35:11.940Z,99.90
2019-03-30T00:37:38.296Z,99.90
2019-03-30T00:40:05.690Z,99.90
2019-03-30T00:42:31.675Z,99.90
2019-03-30T00:44:57.662Z,99.90
2019-03-30T00:47:23.676Z,99.90
2019-03-30T00:49:50.244Z,99.90
2019-03-30T00:52:16.715Z,99.90
2019-03-30T00:54:42.695Z,99.90
2019-03-30T00:57:08.959Z,99.90
2019-03-30T00:59:35.190Z,99.90
2019-03-30T01:02:01.190Z,99.90
2019-03-30T01:04:27.455Z,99.90
2019-03-30T01:06:53.459Z,99.90
2019-03-30T01:09:19.538Z,99.90
2019-03-30T01:11:45.526Z,99.90
2019-03-30T01:14:11.536Z,99.90
2019-03-30T01:16:37.551Z,99.90
2019-03-30T01:19:03.745Z,99.90
2019-03-30T01:21:30.140Z,99.90
2019-03-30T01:23:56.126Z,99.90
2019-03-30T01:26:22.120Z,99.90
2019-03-30T01:28:48.451Z,99.90
2019-03-30T01:31:14.663Z,99.90
2019-03-30T01:33:40.655Z,99.90
2019-03-30T01:36:06.642Z,99.90
2019-03-30T01:38:32.922Z,99.90
2019-03-30T01:40:58.911Z,99.90
2019-03-30T01:43:24.931Z,99.90
2019-03-30T01:45:50.915Z,99.90
2019-03-30T01:48:16.922Z,99.90
2019-03-30T01:50:42.904Z,99.90
2019-03-30T01:53:08.895Z,99.90
2019-03-30T01:55:34.895Z,99.90
2019-03-30T01:58:01.106Z,99.90
2019-03-30T02:00:27.108Z,99.90
2019-03-30T02:02:53.096Z,99.90
2019-03-30T02:05:19.091Z,99.90
2019-03-30T02:07:45.411Z,99.90
2019-03-30T02:10:15.531Z,99.90
2019-03-30T02:12:41.518Z,99.90
2019-03-30T02:15:08.119Z,99.90
2019-03-30T02:17:34.091Z,99.90
2019-03-30T02:20:00.343Z,99.90
2019-03-30T02:22:26.392Z,99.90
2019-03-30T02:24:52.400Z,99.90
2019-03-30T02:27:18.623Z,99.90
2019-03-30T02:29:44.635Z,99.90
2019-03-30T02:32:10.982Z,99.90
2019-03-30T02:34:36.987Z,99.90
2019-03-30T02:37:03.240Z,99.90
2019-03-30T02:39:29.395Z,99.90
2019-03-30T02:41:55.543Z,99.90
2019-03-30T02:44:21.818Z,99.90
2019-03-30T02:46:47.919Z,99.90
2019-03-30T02:49:14.290Z,99.90
2019-03-30T02:51:40.301Z,99.90
2019-03-30T02:54:06.284Z,99.90
2019-03-30T02:56:32.291Z,99.90
2019-03-30T02:58:58.291Z,99.90
2019-03-30T03:01:24.297Z,99.90
2019-03-30T03:03:50.528Z,99.90
2019-03-30T03:06:16.543Z,99.90
2019-03-30T03:08:42.784Z,99.90
2019-03-30T03:11:08.778Z,99.90
2019-03-30T03:13:34.773Z,99.90
2019-03-30T03:16:00.806Z,99.90
2019-03-30T03:18:26.888Z,99.90
2019-03-30T03:21:06.757Z,99.90
2019-03-30T03:23:20.905Z,99.90
2019-03-30T03:25:46.908Z,99.90
2019-03-30T03:28:12.906Z,99.90
2019-03-30T03:30:38.926Z,99.90
2019-03-30T03:33:04.915Z,99.90
2019-03-30T03:35:31.009Z,99.90
2019-03-30T03:37:57.015Z,99.90
2019-03-30T03:40:23.017Z,99.90
2019-03-30T03:42:49.524Z,99.90
2019-03-30T03:45:15.615Z,99.90
2019-03-30T03:47:41.615Z,99.90
2019-03-30T03:50:11.411Z,99.90
2019-03-30T03:52:38.727Z,99.90
2019-03-30T03:55:05.021Z,99.90
2019-03-30T03:57:34.835Z,99.90
2019-03-30T04:00:01.451Z,99.90
2019-03-30T04:02:31.248Z,99.90
2019-03-30T04:04:59.601Z,99.90
2019-03-30T04:07:29.165Z,99.90
2019-03-30T04:09:59.207Z,99.90
2019-03-30T04:12:25.808Z,99.90
2019-03-30T04:14:52.023Z,99.90
2019-03-30T04:17:18.248Z,99.90
2019-03-30T04:19:44.243Z,99.90
2019-03-30T04:22:10.346Z,99.90
2019-03-30T04:24:36.329Z,99.90
2019-03-30T04:27:02.332Z,99.90
2019-03-30T04:29:28.538Z,99.90
2019-03-30T04:31:54.540Z,99.90
2019-03-30T04:34:20.527Z,99.90
2019-03-30T04:36:46.561Z,99.90
2019-03-30T04:39:12.544Z,99.90
2019-03-30T04:41:38.550Z,99.90
2019-03-30T04:44:04.543Z,99.90
2019-03-30T04:46:30.552Z,99.90
2019-03-30T04:48:56.935Z,99.90
2019-03-30T04:51:22.940Z,99.90
2019-03-30T04:53:48.940Z,99.90
2019-03-30T04:56:14.949Z,99.90
2019-03-30T04:58:40.923Z,99.90
2019-03-30T05:01:07.215Z,99.90
2019-03-30T05:03:33.207Z,99.90
2019-03-30T05:05:59.199Z,99.90
2019-03-30T05:08:25.193Z,99.90
2019-03-30T05:10:51.176Z,99.90
2019-03-30T05:13:17.481Z,99.90
2019-03-30T05:15:43.712Z,99.90
2019-03-30T05:18:09.715Z,99.90
2019-03-30T05:20:35.739Z,99.90
2019-03-30T05:23:01.744Z,99.90
2019-03-30T05:25:28.004Z,99.90
2019-03-30T05:27:54.250Z,99.90
2019-03-30T05:30:20.251Z,99.90
2019-03-30T05:32:46.583Z,99.90
2019-03-30T05:35:12.925Z,99.90
2019-03-30T05:37:38.915Z,99.90
2019-03-30T05:40:06.123Z,99.90
2019-03-30T05:42:32.103Z,99.90
2019-03-30T05:44:58.219Z,99.90
2019-03-30T05:47:24.293Z,98.10
2019-03-30T05:49:50.299Z,93.10
2019-03-30T05:52:26.481Z,85.70
2019-03-30T05:54:44.197Z,77.00
2019-03-30T05:57:10.420Z,71.80
2019-03-30T05:59:36.437Z,66.40
2019-03-30T06:02:02.427Z,62.60
2019-03-30T06:04:28.438Z,61.20
2019-03-30T06:06:54.715Z,60.20
2019-03-30T06:09:20.721Z,59.20
2019-03-30T06:11:46.712Z,56.10
2019-03-30T06:14:12.703Z,54.40
2019-03-30T06:16:38.703Z,54.70
2019-03-30T06:19:04.703Z,55.00
2019-03-30T06:21:30.699Z,56.00
2019-03-30T06:23:56.687Z,56.00
2019-03-30T06:26:22.712Z,55.60
2019-03-30T06:28:48.749Z,55.00
2019-03-30T06:31:14.735Z,51.50
2019-03-30T06:33:40.739Z,48.30
2019-03-30T06:36:07.007Z,46.60
2019-03-30T06:38:33.234Z,44.60
2019-03-30T06:40:59.451Z,42.20
2019-03-30T06:43:25.450Z,40.40
2019-03-30T06:45:51.446Z,38.50
2019-03-30T06:48:17.448Z,37.40
2019-03-30T06:50:43.665Z,36.90
2019-03-30T06:53:09.996Z,36.20
2019-03-30T06:55:36.025Z,35.20
2019-03-30T06:58:02.019Z,35.10
2019-03-30T07:00:32.865Z,34.90
2019-03-30T07:03:01.988Z,33.60
2019-03-30T07:05:28.789Z,33.40
2019-03-30T07:07:54.807Z,32.60
2019-03-30T07:10:20.819Z,32.60
2019-03-30T07:12:50.811Z,31.70
2019-03-30T07:15:16.803Z,31.50
2019-03-30T07:17:44.807Z,31.10
2019-03-30T07:20:14.603Z,31.00
2019-03-30T07:22:40.639Z,30.20
2019-03-30T07:25:06.639Z,29.30
2019-03-30T07:27:32.639Z,29.20
2019-03-30T07:29:58.639Z,29.10
2019-03-30T07:32:24.639Z,29.10
2019-03-30T07:34:50.643Z,28.80
2019-03-30T07:37:16.629Z,28.20
2019-03-30T07:39:42.646Z,28.00
2019-03-30T07:42:08.672Z,28.00
2019-03-30T07:44:34.660Z,28.10
2019-03-30T07:47:00.669Z,27.50
2019-03-30T07:49:26.655Z,27.10
2019-03-30T07:51:52.663Z,27.20
2019-03-30T07:54:18.652Z,26.70
2019-03-30T07:56:44.648Z,27.00
2019-03-30T07:59:10.636Z,27.10
2019-03-30T08:01:36.642Z,26.50
2019-03-30T08:04:02.636Z,26.70
2019-03-30T08:06:28.635Z,26.40
2019-03-30T08:08:54.885Z,26.70
2019-03-30T08:11:20.886Z,26.50
2019-03-30T08:13:46.883Z,26.20
2019-03-30T08:16:13.153Z,26.00
2019-03-30T08:18:39.139Z,26.20
2019-03-30T08:21:05.159Z,25.90
2019-03-30T08:23:40.218Z,25.70
2019-03-30T08:25:59.046Z,25.80
2019-03-30T08:28:25.039Z,25.90
2019-03-30T08:30:51.347Z,26.10
2019-03-30T08:33:17.359Z,26.20
2019-03-30T08:35:43.362Z,26.30
2019-03-30T08:38:09.351Z,26.60
2019-03-30T08:40:35.423Z,26.40
2019-03-30T08:43:01.553Z,26.90
2019-03-30T08:45:27.765Z,27.30
2019-03-30T08:47:53.776Z,27.00
2019-03-30T08:50:19.771Z,27.30
2019-03-30T08:52:45.777Z,27.50
2019-03-30T08:55:11.867Z,27.70
2019-03-30T08:57:38.371Z,28.10
2019-03-30T09:00:05.576Z,29.00
2019-03-30T09:02:31.585Z,30.00
2019-03-30T09:04:57.844Z,30.40
2019-03-30T09:07:23.827Z,31.50
2019-03-30T09:09:49.831Z,32.30
2019-03-30T09:12:16.125Z,33.60
2019-03-30T09:14:42.124Z,35.00
2019-03-30T09:17:08.107Z,35.80
2019-03-30T09:19:34.108Z,36.60
2019-03-30T09:22:00.092Z,37.70
2019-03-30T09:24:26.096Z,38.10
2019-03-30T09:26:52.091Z,38.90
2019-03-30T09:29:18.100Z,39.10
2019-03-30T09:31:44.192Z,39.50
2019-03-30T09:34:10.196Z,39.70
2019-03-30T09:36:36.323Z,40.20
2019-03-30T09:39:04.702Z,40.60
2019-03-30T09:41:30.687Z,41.10
2019-03-30T09:43:56.675Z,41.40
2019-03-30T09:46:22.683Z,41.30
2019-03-30T09:48:48.685Z,41.40
2019-03-30T09:51:14.675Z,41.40
2019-03-30T09:53:40.672Z,41.10
2019-03-30T09:56:06.908Z,41.70
2019-03-30T09:58:32.890Z,42.30
2019-03-30T10:00:58.896Z,42.60
2019-03-30T10:03:24.898Z,42.90
2019-03-30T10:05:50.887Z,43.00
2019-03-30T10:08:16.875Z,43.10
2019-03-30T10:10:42.875Z,43.30
2019-03-30T10:13:08.867Z,43.80
2019-03-30T10:15:35.211Z,45.10
2019-03-30T10:18:01.215Z,45.50
2019-03-30T10:20:27.204Z,45.70
2019-03-30T10:22:53.206Z,45.50
2019-03-30T10:25:19.216Z,45.50
2019-03-30T10:27:45.535Z,45.10
2019-03-30T10:30:11.828Z,44.70
2019-03-30T10:32:37.835Z,44.60
2019-03-30T10:35:05.126Z,44.70
2019-03-30T10:37:31.134Z,44.60
2019-03-30T10:39:57.352Z,44.80
2019-03-30T10:42:23.379Z,44.70
2019-03-30T10:44:49.364Z,44.80
2019-03-30T10:47:15.359Z,45.00
2019-03-30T10:50:01.462Z,44.90
2019-03-30T10:52:27.552Z,44.70
2019-03-30T10:54:53.556Z,44.70
2019-03-30T10:57:19.547Z,45.10
2019-03-30T10:59:45.547Z,45.10
2019-03-30T11:02:11.543Z,45.00
2019-03-30T11:04:37.826Z,44.80
2019-03-30T11:07:03.963Z,44.50
2019-03-30T11:09:29.967Z,44.50
2019-03-30T11:11:55.970Z,44.70
2019-03-30T11:14:21.987Z,44.50
2019-03-30T11:16:47.960Z,44.90
2019-03-30T11:19:14.126Z,45.30
2019-03-30T11:21:40.662Z,45.20
2019-03-30T11:24:07.027Z,45.00
2019-03-30T11:26:33.501Z,44.90
2019-03-30T11:28:59.539Z,45.00
2019-03-30T11:31:25.533Z,44.80
2019-03-30T11:33:51.865Z,44.60
2019-03-30T11:36:18.811Z,44.30
2019-03-30T11:38:45.152Z,44.10
2019-03-30T11:41:11.163Z,44.50
2019-03-30T11:43:37.513Z,44.70
2019-03-30T11:46:03.511Z,44.70
2019-03-30T11:48:29.820Z,44.20
2019-03-30T11:50:55.848Z,44.60
2019-03-30T11:53:22.058Z,44.40
2019-03-30T11:55:48.055Z,44.30
2019-03-30T11:58:14.393Z,44.30
2019-03-30T12:00:40.391Z,44.10
2019-03-30T12:03:06.421Z,43.40
2019-03-30T12:05:32.491Z,43.50
2019-03-30T12:07:58.585Z,43.60
2019-03-30T12:10:24.893Z,43.80
2019-03-30T12:12:51.063Z,43.70
2019-03-30T12:15:17.362Z,43.40
2019-03-30T12:17:43.376Z,43.60
2019-03-30T12:20:10.397Z,43.20
2019-03-30T12:22:36.646Z,43.30
2019-03-30T12:25:03.843Z,42.90
2019-03-30T12:27:29.930Z,43.10
2019-03-30T12:29:56.159Z,43.30
2019-03-30T12:32:22.155Z,42.90
2019-03-30T12:34:48.180Z,42.90
2019-03-30T12:37:14.213Z,42.70
2019-03-30T12:39:40.197Z,42.30
2019-03-30T12:42:06.272Z,42.10
2019-03-30T12:44:32.277Z,42.20
2019-03-30T12:46:58.328Z,41.60
2019-03-30T12:49:24.321Z,41.70
2019-03-30T12:51:50.299Z,41.40
2019-03-30T12:54:16.554Z,41.60
2019-03-30T12:56:42.535Z,41.10
2019-03-30T12:59:08.547Z,41.30
2019-03-30T13:01:34.551Z,40.90
2019-03-30T13:04:00.796Z,39.70
2019-03-30T13:06:26.792Z,39.80
2019-03-30T13:08:52.801Z,39.90
2019-03-30T13:11:18.819Z,39.80
2019-03-30T13:13:44.823Z,39.90
2019-03-30T13:16:10.811Z,39.00
2019-03-30T13:18:36.815Z,38.80
2019-03-30T13:21:02.822Z,37.90
2019-03-30T13:23:28.800Z,37.80
2019-03-30T13:26:03.539Z,37.70
2019-03-30T13:28:22.700Z,37.40
2019-03-30T13:30:48.708Z,37.00
2019-03-30T13:33:14.936Z,36.90
2019-03-30T13:35:40.948Z,36.80
2019-03-30T13:38:06.944Z,36.80
2019-03-30T13:40:32.939Z,36.80
2019-03-30T13:42:58.934Z,36.20
2019-03-30T13:45:24.932Z,36.10
2019-03-30T13:47:50.943Z,36.00
2019-03-30T13:50:16.957Z,36.20
2019-03-30T13:52:43.206Z,35.90
2019-03-30T13:55:09.587Z,35.40
2019-03-30T13:57:35.608Z,35.70
2019-03-30T14:00:05.251Z,35.50
2019-03-30T14:02:31.247Z,35.20
2019-03-30T14:04:57.266Z,35.10
2019-03-30T14:07:23.259Z,35.00
2019-03-30T14:09:49.263Z,34.50
2019-03-30T14:12:15.272Z,34.00
2019-03-30T14:14:41.263Z,34.10
2019-03-30T14:17:07.253Z,33.90
2019-03-30T14:19:33.260Z,34.30
2019-03-30T14:21:59.625Z,34.70
2019-03-30T14:24:25.663Z,35.10
2019-03-30T14:26:51.655Z,35.00
2019-03-30T14:29:17.669Z,35.20
2019-03-30T14:31:44.159Z,34.30
2019-03-30T14:34:10.159Z,34.50
2019-03-30T14:36:36.163Z,34.80
2019-03-30T14:39:04.363Z,35.80
2019-03-30T14:41:30.359Z,35.40
2019-03-30T14:43:56.343Z,35.30
2019-03-30T14:46:22.385Z,35.30
2019-03-30T14:48:48.363Z,35.30
2019-03-30T14:51:14.370Z,35.40
2019-03-30T14:53:40.362Z,35.70
2019-03-30T14:56:06.351Z,36.10
2019-03-30T14:58:32.377Z,36.30
2019-03-30T15:00:58.449Z,35.70
2019-03-30T15:03:24.435Z,35.50
2019-03-30T15:05:50.449Z,36.00
2019-03-30T15:08:16.450Z,35.40
2019-03-30T15:10:42.785Z,34.40
2019-03-30T15:13:08.809Z,34.60
2019-03-30T15:15:34.787Z,33.00
2019-03-30T15:18:00.784Z,31.80
2019-03-30T15:20:26.782Z,31.10
2019-03-30T15:22:52.785Z,30.80
2019-03-30T15:25:18.777Z,31.00
2019-03-30T15:27:44.783Z,31.30
2019-03-30T15:30:11.384Z,31.50
2019-03-30T15:32:37.401Z,31.70
2019-03-30T15:35:05.100Z,31.90
2019-03-30T15:37:31.119Z,32.00
2019-03-30T15:39:57.108Z,31.90
2019-03-30T15:42:23.121Z,31.80
2019-03-30T15:44:49.107Z,31.40
2019-03-30T15:47:15.391Z,31.60
2019-03-30T15:49:41.396Z,31.70
2019-03-30T15:52:13.899Z,31.40
2019-03-30T15:54:37.253Z,31.30
2019-03-30T15:57:13.978Z,31.10
2019-03-30T15:59:31.515Z,30.10
2019-03-30T16:01:57.596Z,30.00
2019-03-30T16:04:23.603Z,29.40
2019-03-30T16:06:49.599Z,30.30
2019-03-30T16:09:15.613Z,29.80
2019-03-30T16:11:41.879Z,29.60
2019-03-30T16:14:08.140Z,29.70
2019-03-30T16:16:34.243Z,29.70
2019-03-30T16:19:00.248Z,29.40
2019-03-30T16:21:26.264Z,29.60
2019-03-30T16:23:52.263Z,30.00
2019-03-30T16:26:18.842Z,31.30
2019-03-30T16:28:45.177Z,30.70
2019-03-30T16:31:11.171Z,31.00
2019-03-30T16:33:37.165Z,30.70
2019-03-30T16:36:03.448Z,30.80
2019-03-30T16:38:29.453Z,30.50
2019-03-30T16:40:55.471Z,30.60
2019-03-30T16:43:21.463Z,30.40
2019-03-30T16:45:47.527Z,30.50
2019-03-30T16:48:14.815Z,30.50
2019-03-30T16:50:41.034Z,30.80
2019-03-30T16:53:07.020Z,31.00
2019-03-30T16:55:33.024Z,31.10
2019-03-30T16:57:59.311Z,30.30
2019-03-30T17:00:29.115Z,30.40
2019-03-30T17:02:55.119Z,30.30
2019-03-30T17:05:21.121Z,30.30
2019-03-30T17:07:47.108Z,35.60
2019-03-30T17:10:13.216Z,32.20
2019-03-30T17:12:39.204Z,32.90
2019-03-30T17:15:06.015Z,30.90
2019-03-30T17:17:32.027Z,31.50
2019-03-30T17:19:58.031Z,31.70
2019-03-30T17:22:24.045Z,31.80
2019-03-30T17:24:50.028Z,31.90
2019-03-30T17:27:16.019Z,31.90
2019-03-30T17:29:42.090Z,31.60
2019-03-30T17:32:08.284Z,32.60
2019-03-30T17:34:34.432Z,32.70
2019-03-30T17:37:00.432Z,33.10
2019-03-30T17:39:26.418Z,33.50
2019-03-30T17:41:52.428Z,33.40
2019-03-30T17:44:18.659Z,33.30
2019-03-30T17:46:44.688Z,33.60
2019-03-30T17:49:10.687Z,33.40
2019-03-30T17:51:36.696Z,33.30
2019-03-30T17:54:02.744Z,33.40
2019-03-30T17:56:28.731Z,33.30
2019-03-30T17:58:54.728Z,33.50
2019-03-30T18:01:20.736Z,34.00
2019-03-30T18:03:46.773Z,34.20
2019-03-30T18:06:12.765Z,34.40
2019-03-30T18:08:38.773Z,34.20
2019-03-30T18:11:04.773Z,34.30
2019-03-30T18:13:30.779Z,34.50
2019-03-30T18:15:57.100Z,34.70
2019-03-30T18:18:23.119Z,34.90
2019-03-30T18:20:49.138Z,35.10
2019-03-30T18:23:15.405Z,35.40
2019-03-30T18:25:41.390Z,35.70
2019-03-30T18:28:07.386Z,35.70
2019-03-30T18:30:39.924Z,35.80
2019-03-30T18:33:06.442Z,36.00
2019-03-30T18:35:32.627Z,36.40
2019-03-30T18:38:01.460Z,36.80
2019-03-30T18:40:30.262Z,36.90
2019-03-30T18:42:56.985Z,36.90
2019-03-30T18:45:25.375Z,36.80
2019-03-30T18:47:52.888Z,36.90
2019-03-30T18:50:19.182Z,37.00
2019-03-30T18:52:45.167Z,36.90
2019-03-30T18:55:14.976Z,36.90
2019-03-30T18:57:40.975Z,37.10
2019-03-30T19:00:07.380Z,37.60
2019-03-30T19:02:33.471Z,37.70
2019-03-30T19:04:59.501Z,38.00
2019-03-30T19:07:25.519Z,38.10
2019-03-30T19:09:51.517Z,38.20
2019-03-30T19:12:17.523Z,38.50
2019-03-30T19:14:43.538Z,38.60
2019-03-30T19:17:09.531Z,39.30
2019-03-30T19:19:35.847Z,38.70
2019-03-30T19:22:01.839Z,38.70
2019-03-30T19:24:27.839Z,38.90
2019-03-30T19:26:53.891Z,39.00
2019-03-30T19:29:19.910Z,39.10
2019-03-30T19:31:46.140Z,39.40
2019-03-30T19:34:12.145Z,39.50
2019-03-30T19:36:38.131Z,39.60
2019-03-30T19:39:06.839Z,39.90
2019-03-30T19:41:32.828Z,39.90
2019-03-30T19:43:58.840Z,40.00
2019-03-30T19:46:26.687Z,40.40
2019-03-30T19:48:52.750Z,41.20
2019-03-30T19:51:18.812Z,41.40
2019-03-30T19:53:44.947Z,42.90
2019-03-30T19:56:11.046Z,44.00
2019-03-30T19:58:37.032Z,44.80
2019-03-30T20:01:03.700Z,45.20
2019-03-30T20:03:29.694Z,45.60
2019-03-30T20:05:55.683Z,45.80
2019-03-30T20:08:21.691Z,46.50
2019-03-30T20:10:47.711Z,46.70
2019-03-30T20:13:13.733Z,46.70
2019-03-30T20:15:40.048Z,46.00
2019-03-30T20:18:06.036Z,46.70
2019-03-30T20:20:32.045Z,45.70
2019-03-30T20:22:58.040Z,45.10
2019-03-30T20:25:26.040Z,45.00
2019-03-30T20:27:52.008Z,45.00
2019-03-30T20:30:18.235Z,45.20
2019-03-30T20:32:44.254Z,45.50
2019-03-30T20:35:10.651Z,46.00
2019-03-30T20:37:36.929Z,46.20
2019-03-30T20:40:06.269Z,46.30
2019-03-30T20:42:32.554Z,46.60
2019-03-30T20:44:58.543Z,46.90
2019-03-30T20:47:24.556Z,47.20
2019-03-30T20:49:50.541Z,47.60
2019-03-30T20:52:16.545Z,48.00
2019-03-30T20:54:42.562Z,48.30
2019-03-30T20:57:08.573Z,48.70
2019-03-30T20:59:40.210Z,49.10
2019-03-30T21:02:02.580Z,49.30
2019-03-30T21:04:28.559Z,49.70
2019-03-30T21:06:54.576Z,50.00
2019-03-30T21:09:20.574Z,50.80
2019-03-30T21:11:46.552Z,50.70
2019-03-30T21:14:12.814Z,51.10
2019-03-30T21:16:38.809Z,51.70
2019-03-30T21:19:04.807Z,51.80
2019-03-30T21:21:30.808Z,51.80
2019-03-30T21:23:57.116Z,52.10
2019-03-30T21:26:23.154Z,52.30
2019-03-30T21:28:49.366Z,52.50
2019-03-30T21:31:15.572Z,53.00
2019-03-30T21:33:41.563Z,53.30
2019-03-30T21:36:08.055Z,53.00
2019-03-30T21:38:34.064Z,53.10
2019-03-30T21:41:00.064Z,53.10
2019-03-30T21:43:26.092Z,53.40
2019-03-30T21:45:52.075Z,53.00
2019-03-30T21:48:18.115Z,53.00
2019-03-30T21:50:44.111Z,53.30
2019-03-30T21:53:10.105Z,52.60
2019-03-30T21:55:36.095Z,52.90
2019-03-30T21:58:02.105Z,52.40
2019-03-30T22:00:34.048Z,52.50
2019-03-30T22:03:00.051Z,52.00
2019-03-30T22:05:26.048Z,52.20
2019-03-30T22:07:52.141Z,52.40
2019-03-30T22:10:26.304Z,52.00
2019-03-30T22:12:52.300Z,52.20
2019-03-30T22:15:22.111Z,52.80
2019-03-30T22:17:48.113Z,53.00
2019-03-30T22:20:14.413Z,53.20
2019-03-30T22:22:40.409Z,53.20
2019-03-30T22:25:07.006Z,53.90
2019-03-30T22:27:33.052Z,54.00
2019-03-30T22:29:59.065Z,54.20
2019-03-30T22:32:25.270Z,54.20
2019-03-30T22:34:51.274Z,54.50
2019-03-30T22:37:17.506Z,55.10
2019-03-30T22:39:43.515Z,55.50
2019-03-30T22:42:09.523Z,56.20
2019-03-30T22:44:36.055Z,56.90
2019-03-30T22:47:02.423Z,57.00
2019-03-30T22:49:28.502Z,57.10
2019-03-30T22:51:54.539Z,57.30
2019-03-30T22:54:20.555Z,56.90
2019-03-30T22:56:46.698Z,53.10
2019-03-30T22:59:12.716Z,52.90
2019-03-30T23:01:39.139Z,53.00
2019-03-30T23:04:05.162Z,53.80
2019-03-30T23:06:31.604Z,54.50
2019-03-30T23:08:57.663Z,54.90
2019-03-30T23:11:23.669Z,55.70
2019-03-30T23:13:49.657Z,56.80
2019-03-30T23:16:15.679Z,57.00
2019-03-30T23:18:45.116Z,57.80
2019-03-30T23:21:09.571Z,58.10
2019-03-30T23:23:35.586Z,58.80
2019-03-30T23:26:01.588Z,59.20
2019-03-30T23:28:27.579Z,58.90
2019-03-30T23:30:54.846Z,59.70
2019-03-30T23:33:21.055Z,60.00
2019-03-30T23:35:47.075Z,60.20
2019-03-30T23:38:13.291Z,60.80
2019-03-30T23:40:39.284Z,61.00
2019-03-30T23:43:05.307Z,61.20
2019-03-30T23:45:31.309Z,62.10
2019-03-30T23:47:57.311Z,62.10
2019-03-30T23:50:23.301Z,62.40
2019-03-30T23:52:49.582Z,63.20
2019-03-30T23:55:15.571Z,63.70
2019-03-30T23:57:41.784Z,63.90
